地図

経路データ

SID SEASON NUMBER BASIN SUBBASIN NAME ISO_TIME NATURE LAT LON WMO_WIND WMO_PRES WMO_AGENCY TRACK_TYPE DIST2LAND LANDFALL IFLAG USA_AGENCY USA_ATCF_ID USA_LAT USA_LON USA_RECORD USA_STATUS USA_WIND USA_PRES USA_SSHS USA_R34_NE USA_R34_SE USA_R34_SW USA_R34_NW USA_R50_NE USA_R50_SE USA_R50_SW USA_R50_NW USA_R64_NE USA_R64_SE USA_R64_SW USA_R64_NW USA_POCI USA_ROCI USA_RMW USA_EYE TOKYO_LAT TOKYO_LON TOKYO_GRADE TOKYO_WIND TOKYO_PRES TOKYO_R50_DIR TOKYO_R50_LONG TOKYO_R50_SHORT TOKYO_R30_DIR TOKYO_R30_LONG TOKYO_R30_SHORT TOKYO_LAND CMA_LAT CMA_LON CMA_CAT CMA_WIND CMA_PRES HKO_LAT HKO_LON HKO_CAT HKO_WIND HKO_PRES NEWDELHI_LAT NEWDELHI_LON NEWDELHI_GRADE NEWDELHI_WIND NEWDELHI_PRES NEWDELHI_CI NEWDELHI_DP NEWDELHI_POCI REUNION_LAT REUNION_LON REUNION_TYPE REUNION_WIND REUNION_PRES REUNION_TNUM REUNION_CI REUNION_RMW REUNION_R34_NE REUNION_R34_SE REUNION_R34_SW REUNION_R34_NW REUNION_R50_NE REUNION_R50_SE REUNION_R50_SW REUNION_R50_NW REUNION_R64_NE REUNION_R64_SE REUNION_R64_SW REUNION_R64_NW BOM_LAT BOM_LON BOM_TYPE BOM_WIND BOM_PRES BOM_TNUM BOM_CI BOM_RMW BOM_R34_NE BOM_R34_SE BOM_R34_SW BOM_R34_NW BOM_R50_NE BOM_R50_SE BOM_R50_SW BOM_R50_NW BOM_R64_NE BOM_R64_SE BOM_R64_SW BOM_R64_NW BOM_ROCI BOM_POCI BOM_EYE BOM_POS_METHOD BOM_PRES_METHOD NADI_LAT NADI_LON NADI_CAT NADI_WIND NADI_PRES WELLINGTON_LAT WELLINGTON_LON WELLINGTON_WIND WELLINGTON_PRES DS824_LAT DS824_LON DS824_STAGE DS824_WIND DS824_PRES TD9636_LAT TD9636_LON TD9636_STAGE TD9636_WIND TD9636_PRES TD9635_LAT TD9635_LON TD9635_WIND TD9635_PRES TD9635_ROCI NEUMANN_LAT NEUMANN_LON NEUMANN_CLASS NEUMANN_WIND NEUMANN_PRES MLC_LAT MLC_LON MLC_CLASS MLC_WIND MLC_PRES USA_GUST BOM_GUST BOM_GUST_PER REUNION_GUST REUNION_GUST_PER USA_SEAHGT USA_SEARAD_NE USA_SEARAD_SE USA_SEARAD_SW USA_SEARAD_NW STORM_SPEED STORM_DIR
1982253N10250 1982 72 EP MM NORMAN 1982-09-09 18:00:00 TS 10.2000 -109.900 25 hurdat_epa main 1139 1139 O_________O___ hurdat_epa EP141982 10.2000 -109.900 TD 25 -1 10.2000 -109.900 1 25 8 281
1982253N10250 1982 72 EP MM NORMAN 1982-09-09 21:00:00 TS 10.2808 -110.319 main 1156 1156 P_________P___ EP141982 10.2775 -110.315 TD 25 -1 10.2906 -110.330 1 25 9 283
1982253N10250 1982 72 EP MM NORMAN 1982-09-10 00:00:00 TS 10.4000 -110.800 25 hurdat_epa main 1177 1177 O_________O___ hurdat_epa EP141982 10.4000 -110.800 TD 25 -1 10.4000 -110.800 1 25 11 286
1982253N10250 1982 72 EP MM NORMAN 1982-09-10 03:00:00 TS 10.5801 -111.379 main 1195 1195 P_________P___ EP141982 10.5926 -111.392 TD 25 -1 10.5425 -111.338 1 26 12 288
1982253N10250 1982 72 EP MM NORMAN 1982-09-10 06:00:00 TS 10.7782 -111.978 25 hurdat_epa main 1217 1217 O_________P___ hurdat_epa EP141982 10.8000 -112.000 TD 25 -1 10.7130 -111.913 1 27 12 288
1982253N10250 1982 72 EP MM NORMAN 1982-09-10 09:00:00 TS 10.9379 -112.524 main 1243 1242 P_________P___ EP141982 10.9499 -112.538 TD 27 -1 10.9019 -112.482 1 28 11 288
1982253N10250 1982 72 EP MM NORMAN 1982-09-10 12:00:00 TS 11.1000 -113.000 30 hurdat_epa main 1263 1262 O_________O___ hurdat_epa EP141982 11.1000 -113.000 TD 30 -1 11.1000 -113.000 1 30 9 293
1982253N10250 1982 72 EP MM NORMAN 1982-09-10 15:00:00 TS 11.2934 -113.384 main 1277 1276 P_________P___ EP141982 11.2924 -113.373 TD 30 -1 11.2964 -113.420 1 31 8 300
1982253N10250 1982 72 EP MM NORMAN 1982-09-10 18:00:00 TS 11.4999 -113.721 30 hurdat_epa main 1284 1284 O_________P___ hurdat_epa EP141982 11.5000 -113.700 TD 30 -1 11.4995 -113.783 1 32 8 301
1982253N10250 1982 72 EP MM NORMAN 1982-09-10 21:00:00 TS 11.7007 -114.069 main 1299 1299 P_________P___ EP141982 11.7000 -114.058 TD 32 -1 11.7028 -114.104 1 33 8 301
1982253N10250 1982 72 EP MM NORMAN 1982-09-11 00:00:00 TS 11.9000 -114.400 35 hurdat_epa main 1307 1302 O_________O___ hurdat_epa EP141982 11.9000 -114.400 TS 35 0 11.9000 -114.400 2 35 7 303
1982253N10250 1982 72 EP MM NORMAN 1982-09-11 03:00:00 TS 12.1021 -114.710 main 1306 1294 P_________P___ EP141982 12.1075 -114.715 TS 35 0 12.0860 -114.697 2 36 7 304
1982253N10250 1982 72 EP MM NORMAN 1982-09-11 06:00:00 TS 12.2912 -114.993 35 hurdat_epa main 1298 1292 O_________P___ hurdat_epa EP141982 12.3000 -115.000 TS 35 0 12.2647 -114.973 2 37 6 303
1982253N10250 1982 72 EP MM NORMAN 1982-09-11 09:00:00 TS 12.4521 -115.258 main 1291 1286 P_________P___ EP141982 12.4575 -115.265 TS 37 0 12.4361 -115.237 2 38 6 302
1982253N10250 1982 72 EP MM NORMAN 1982-09-11 12:00:00 TS 12.6000 -115.500 40 hurdat_epa main 1290 1285 O_________O___ hurdat_epa EP141982 12.6000 -115.500 TS 40 0 12.6000 -115.500 2 40 5 304
1982253N10250 1982 72 EP MM NORMAN 1982-09-11 15:00:00 TS 12.7517 -115.708 main 1280 1280 P_________P___ EP141982 12.7499 -115.685 TS 42 0 12.7571 -115.775 2 42 5 305
1982253N10250 1982 72 EP MM NORMAN 1982-09-11 18:00:00 TS 12.9018 -115.938 45 hurdat_epa main 1280 1276 O_________P___ hurdat_epa EP141982 12.9000 -115.900 TS 45 0 12.9074 -116.050 2 45 6 299
1982253N10250 1982 72 EP MM NORMAN 1982-09-11 21:00:00 TS 13.0510 -116.258 main 1282 1282 P_________P___ EP141982 13.0501 -116.235 TS 47 0 13.0540 -116.325 2 47 7 295
1982253N10250 1982 72 EP MM NORMAN 1982-09-12 00:00:00 TS 13.2000 -116.600 50 hurdat_epa main 1289 1285 O_________O___ hurdat_epa EP141982 13.2000 -116.600 TS 50 0 13.2000 -116.600 2 50 7 295
1982253N10250 1982 72 EP MM NORMAN 1982-09-12 03:00:00 TS 13.3489 -116.902 main 1297 1288 P_________P___ EP141982 13.3500 -116.915 TS 52 0 13.3457 -116.863 2 51 6 298
1982253N10250 1982 72 EP MM NORMAN 1982-09-12 06:00:00 TS 13.4981 -117.182 55 hurdat_epa main 1297 1294 O_________P___ hurdat_epa EP141982 13.5000 -117.200 TS 55 0 13.4922 -117.128 2 52 6 300
1982253N10250 1982 72 EP MM NORMAN 1982-09-12 09:00:00 TS 13.6424 -117.433 main 1300 1291 P_________P___ EP141982 13.6424 -117.443 TS 55 0 13.6426 -117.404 2 53 6 301
1982253N10250 1982 72 EP MM NORMAN 1982-09-12 12:00:00 TS 13.8000 -117.700 55 hurdat_epa main 1301 1299 O_________O___ hurdat_epa EP141982 13.8000 -117.700 TS 55 0 13.8000 -117.700 2 55 7 301
1982253N10250 1982 72 EP MM NORMAN 1982-09-12 15:00:00 TS 13.9930 -118.035 main 1304 1304 P_________P___ EP141982 14.0000 -118.035 TS 57 0 13.9719 -118.037 2 57 8 300
1982253N10250 1982 72 EP MM NORMAN 1982-09-12 18:00:00 TS 14.1875 -118.398 60 hurdat_epa main 1315 1313 O_________P___ hurdat_epa EP141982 14.2000 -118.400 TS 60 0 14.1501 -118.392 2 60 8 297
1982253N10250 1982 72 EP MM NORMAN 1982-09-12 21:00:00 TS 14.3502 -118.762 main 1327 1327 P_________P___ EP141982 14.3575 -118.765 TS 62 0 14.3282 -118.752 2 62 8 295
1982253N10250 1982 72 EP MM NORMAN 1982-09-13 00:00:00 TS 14.5000 -119.100 65 hurdat_epa main 1341 1340 O_________O___ hurdat_epa EP141982 14.5000 -119.100 HU 65 1 14.5000 -119.100 3 65 7 297
1982253N10250 1982 72 EP MM NORMAN 1982-09-13 03:00:00 TS 14.6486 -119.368 main 1356 1348 P_________P___ EP141982 14.6499 -119.350 HU 67 1 14.6449 -119.423 3 67 6 300
1982253N10250 1982 72 EP MM NORMAN 1982-09-13 06:00:00 TS 14.7962 -119.633 70 hurdat_epa main 1356 1356 O_________P___ hurdat_epa EP141982 14.8000 -119.600 HU 70 1 14.7848 -119.730 3 70 7 297
1982253N10250 1982 72 EP MM NORMAN 1982-09-13 09:00:00 TS 14.9400 -119.968 main 1371 1362 P_________P___ EP141982 14.9426 -119.950 HU 72 1 14.9324 -120.023 3 72 7 295
1982253N10250 1982 72 EP MM NORMAN 1982-09-13 12:00:00 TS 15.1000 -120.300 75 hurdat_epa main 1373 1368 O_________O___ hurdat_epa EP141982 15.1000 -120.300 HU 75 1 15.1000 -120.300 4 75 7 301
1982253N10250 1982 72 EP MM NORMAN 1982-09-13 15:00:00 TS 15.2895 -120.569 main 1375 1371 P_________P___ EP141982 15.2849 -120.565 HU 77 1 15.3034 -120.581 4 78 6 310
1982253N10250 1982 72 EP MM NORMAN 1982-09-13 18:00:00 TS 15.5069 -120.811 80 hurdat_epa main 1371 1368 O_________P___ hurdat_epa EP141982 15.5000 -120.800 HU 80 1 15.5275 -120.845 4 82 7 313
1982253N10250 1982 72 EP MM NORMAN 1982-09-13 21:00:00 TS 15.7476 -121.070 main 1375 1365 P_________P___ EP141982 15.7425 -121.065 HU 85 2 15.7628 -121.087 4 86 7 316
1982253N10250 1982 72 EP MM NORMAN 1982-09-14 00:00:00 TS 16.0000 -121.300 90 hurdat_epa main 1365 1356 O_________O___ hurdat_epa EP141982 16.0000 -121.300 HU 90 2 16.0000 -121.300 4 90 6 322
1982253N10250 1982 72 EP MM NORMAN 1982-09-14 03:00:00 TS 16.2493 -121.471 main 1363 1347 P_________P___ EP141982 16.2575 -121.465 HU 90 2 16.2249 -121.487 4 90 6 328
1982253N10250 1982 72 EP MM NORMAN 1982-09-14 06:00:00 TS 16.4875 -121.611 90 hurdat_epa main 1347 1339 O_________P___ hurdat_epa EP141982 16.5000 -121.600 HU 90 2 16.4499 -121.645 4 90 5 328
1982253N10250 1982 72 EP MM NORMAN 1982-09-14 09:00:00 TS 16.6937 -121.758 main 1346 1339 P_________P___ EP141982 16.7000 -121.750 HU 90 2 16.6749 -121.781 4 90 5 326
1982253N10250 1982 72 EP MM NORMAN 1982-09-14 12:00:00 TS 16.9000 -121.900 90 hurdat_epa main 1339 1331 O_________O___ hurdat_epa EP141982 16.9000 -121.900 HU 90 2 16.9000 -121.900 4 90 5 327
1982253N10250 1982 72 EP MM NORMAN 1982-09-14 15:00:00 TS 17.1438 -122.058 main 1339 1325 P_________P___ EP141982 17.1500 -122.065 HU 90 2 17.1250 -122.039 4 88 6 330
1982253N10250 1982 72 EP MM NORMAN 1982-09-14 18:00:00 TS 17.3875 -122.190 90 hurdat_epa main 1325 1318 O_________P___ hurdat_epa EP141982 17.4000 -122.200 HU 90 2 17.3500 -122.160 4 87 5 336
1982253N10250 1982 72 EP MM NORMAN 1982-09-14 21:00:00 TS 17.5937 -122.273 main 1319 1305 P_________P___ EP141982 17.6000 -122.280 HU 87 2 17.5750 -122.251 4 86 4 345
1982253N10250 1982 72 EP MM NORMAN 1982-09-15 00:00:00 TS 17.8000 -122.300 85 hurdat_epa main 1305 1291 O_________O___ hurdat_epa EP141982 17.8000 -122.300 HU 85 2 17.8000 -122.300 4 85 5 359
1982253N10250 1982 72 EP MM NORMAN 1982-09-15 03:00:00 TS 18.0448 -122.274 main 1291 1263 P_________P___ EP141982 18.0500 -122.265 HU 85 2 18.0290 -122.301 4 83 5 9
1982253N10250 1982 72 EP MM NORMAN 1982-09-15 06:00:00 TS 18.2894 -122.215 85 hurdat_epa main 1263 1249 O_________P___ hurdat_epa EP141982 18.3000 -122.200 HU 85 2 18.2575 -122.260 4 82 5 12
1982253N10250 1982 72 EP MM NORMAN 1982-09-15 09:00:00 TS 18.4955 -122.171 main 1249 1228 P_________P___ EP141982 18.5000 -122.165 HU 82 1 18.4822 -122.189 4 81 4 15
1982253N10250 1982 72 EP MM NORMAN 1982-09-15 12:00:00 TS 18.7000 -122.100 80 hurdat_epa main 1228 1206 O_________O___ hurdat_epa EP141982 18.7000 -122.100 HU 80 1 18.7000 -122.100 4 80 5 24
1982253N10250 1982 72 EP MM NORMAN 1982-09-15 15:00:00 TS 18.9399 -121.966 main 1206 1170 P_________P___ EP141982 18.9575 -121.950 HU 77 1 18.8869 -122.014 4 77 5 29
1982253N10250 1982 72 EP MM NORMAN 1982-09-15 18:00:00 TS 19.1675 -121.829 75 hurdat_epa main 1170 1161 O_________P___ hurdat_epa EP141982 19.2000 -121.800 HU 75 1 19.0700 -121.915 4 75 4 27
1982253N10250 1982 72 EP MM NORMAN 1982-09-15 21:00:00 TS 19.3183 -121.759 main 1161 1137 P_________P___ EP141982 19.3350 -121.742 HU 72 1 19.2681 -121.808 4 72 4 20
1982253N10250 1982 72 EP MM NORMAN 1982-09-16 00:00:00 TS 19.5000 -121.700 70 hurdat_epa main 1137 1105 O_________O___ hurdat_epa EP141982 19.5000 -121.700 HU 70 1 19.5000 -121.700 4 70 5 16
1982253N10250 1982 72 EP MM NORMAN 1982-09-16 03:00:00 TS 19.8199 -121.605 main 1105 1064 P_________P___ EP141982 19.8275 -121.608 HU 67 1 19.7972 -121.596 4 66 7 16
1982253N10250 1982 72 EP MM NORMAN 1982-09-16 06:00:00 TS 20.1819 -121.498 65 hurdat_epa main 1064 1032 O_________P___ hurdat_epa EP141982 20.2000 -121.500 HU 65 1 20.1275 -121.493 4 62 7 16
1982253N10250 1982 72 EP MM NORMAN 1982-09-16 09:00:00 TS 20.4979 -121.393 main 1032 1000 P_________P___ EP141982 20.5075 -121.393 HU 60 0 20.4691 -121.393 4 58 6 17
1982253N10250 1982 72 EP MM NORMAN 1982-09-16 12:00:00 TS 20.8000 -121.300 55 hurdat_epa main 1000 967 O_________O___ hurdat_epa EP141982 20.8000 -121.300 TS 55 0 20.8000 -121.300 2 55 6 13
1982253N10250 1982 72 EP MM NORMAN 1982-09-16 15:00:00 TS 21.1009 -121.245 main 967 942 P_________P___ EP141982 21.1075 -121.250 TS 52 0 21.0812 -121.230 2 51 6 10
1982253N10250 1982 72 EP MM NORMAN 1982-09-16 18:00:00 TS 21.3875 -121.191 50 hurdat_epa main 942 918 O_________P___ hurdat_epa EP141982 21.4000 -121.200 TS 50 0 21.3499 -121.164 2 47 6 14
1982253N10250 1982 72 EP MM NORMAN 1982-09-16 21:00:00 TS 21.6422 -121.104 main 918 886 P_________P___ EP141982 21.6500 -121.107 TS 45 0 21.6187 -121.092 2 43 5 19
1982253N10250 1982 72 EP MM NORMAN 1982-09-17 00:00:00 TS 21.9000 -121.000 40 hurdat_epa main 886 854 O_________O___ hurdat_epa EP141982 21.9000 -121.000 TS 40 0 21.9000 -121.000 2 40 6 18
1982253N10250 1982 72 EP MM NORMAN 1982-09-17 03:00:00 TS 22.1893 -120.909 main 854 823 P_________P___ EP141982 22.1850 -120.915 TS 37 0 22.2024 -120.892 2 37 6 18
1982253N10250 1982 72 EP MM NORMAN 1982-09-17 06:00:00 TS 22.5049 -120.790 35 hurdat_epa main 823 784 O_________P___ hurdat_epa EP141982 22.5000 -120.800 TS 35 0 22.5198 -120.759 2 35 7 22
1982253N10250 1982 72 EP MM NORMAN 1982-09-17 09:00:00 TS 22.8449 -120.622 main 784 738 P_________P___ EP141982 22.8425 -120.630 TS 32 -1 22.8523 -120.598 2 32 8 27
1982253N10250 1982 72 EP MM NORMAN 1982-09-17 12:00:00 TS 23.2000 -120.400 30 hurdat_epa main 738 693 O_________O___ hurdat_epa EP141982 23.2000 -120.400 TD 30 -1 23.2000 -120.400 1 30 8 33
1982253N10250 1982 72 EP MM NORMAN 1982-09-17 15:00:00 TS 23.5511 -120.125 main 685 640 P_________P___ EP141982 23.5426 -120.107 TD 27 -1 23.5768 -120.177 1 28 9 36
1982253N10250 1982 72 EP MM NORMAN 1982-09-17 18:00:00 TS 23.9162 -119.829 25 hurdat_epa main 640 595 O_________P___ hurdat_epa EP141982 23.9000 -119.800 TD 25 -1 23.9648 -119.918 1 27 9 33
1982253N10250 1982 72 EP MM NORMAN 1982-09-17 21:00:00 TS 24.3224 -119.580 main 595 544 P_________P___ EP141982 24.3148 -119.565 TD 25 -1 24.3454 -119.624 1 26 9 32
1982253N10250 1982 72 EP MM NORMAN 1982-09-18 00:00:00 TS 24.7000 -119.300 25 hurdat_epa main 544 491 O_________O___ hurdat_epa EP141982 24.7000 -119.300 TD 25 -1 24.7000 -119.300 1 25 9 42
1982253N10250 1982 72 EP MM NORMAN 1982-09-18 03:00:00 TS 24.9775 -118.923 main 491 446 P_________P___ EP141982 24.9651 -118.915 TD 25 -1 25.0148 -118.950 1 25 9 53
1982253N10250 1982 72 EP MM NORMAN 1982-09-18 06:00:00 TS 25.2240 -118.520 25 hurdat_epa main 446 401 O_________P___ hurdat_epa EP141982 25.2000 -118.500 TD 25 -1 25.2959 -118.578 1 25 9 53
1982253N10250 1982 72 EP MM NORMAN 1982-09-18 09:00:00 TS 25.5004 -118.148 main 393 349 P_________P___ EP141982 25.4825 -118.133 TD 25 -1 25.5540 -118.193 1 25 9 48
1982253N10250 1982 72 EP MM NORMAN 1982-09-18 12:00:00 TS 25.8000 -117.800 25 hurdat_epa main 349 O_________O___ hurdat_epa EP141982 25.8000 -117.800 TD 25 -1 25.8000 -117.800 1 25 9 46

IBTrACS Databaseについて

本データベースは、米国NOAAが公開する1842年以降の世界の熱帯低気圧のベストトラックデータアーカイブInternational Best Track Archive for Climate Stewardship (IBTrACS)を、ウェブで閲覧しやすい形式に変換したものです。

最終更新日:2021-10-21